Time;durP1;ratioP1;P1;durP2;ratioP2;P2;SDS_P1;SDS_P2;PMS_P1;PMS_P2;Temp;Humidity;BMP_temperature;BMP_pressure;BME280_temperature;BME280_humidity;BME280_pressure;Samples;Min_cycle;Max_cycle;Signal;HPM_P1;HPM_P2
2022/05/06 00:02:01;;;;;;;3.22;3.03;;;16.20;99.90;;;;;;5072395;28;20256;-86
2022/05/06 00:04:30;;;;;;;10.07;3.30;;;16.20;99.90;;;;;;5072384;28;20205;-86
2022/05/06 00:06:58;;;;;;;2.97;2.72;;;16.20;99.90;;;;;;5072293;28;20224;-86
2022/05/06 00:09:27;;;;;;;3.78;2.97;;;16.20;99.90;;;;;;5072712;28;20209;-86
2022/05/06 00:11:56;;;;;;;3.25;2.95;;;16.20;99.90;;;;;;5072476;28;20256;-86
2022/05/06 00:14:25;;;;;;;2.75;2.53;;;16.10;99.90;;;;;;5072406;28;20269;-86
2022/05/06 00:16:53;;;;;;;3.05;2.65;;;16.20;99.90;;;;;;5072533;28;20208;-86
2022/05/06 00:19:21;;;;;;;2.80;2.60;;;16.10;99.90;;;;;;5072882;28;20292;-86
2022/05/06 00:21:50;;;;;;;2.83;2.63;;;16.10;99.90;;;;;;5072039;28;20252;-86
2022/05/06 00:24:18;;;;;;;8.07;3.67;;;16.10;99.90;;;;;;5072577;28;20327;-86
2022/05/06 00:26:46;;;;;;;3.45;3.00;;;16.00;99.90;;;;;;5072363;28;20231;-86
2022/05/06 00:29:16;;;;;;;4.68;2.97;;;16.10;99.90;;;;;;5072243;28;20293;-86
2022/05/06 00:31:45;;;;;;;2.50;2.35;;;16.10;99.90;;;;;;5071949;28;20263;-86
2022/05/06 00:34:14;;;;;;;2.80;2.60;;;16.00;99.90;;;;;;5072376;28;20320;-87
2022/05/06 00:36:42;;;;;;;3.10;2.90;;;16.00;99.90;;;;;;5072586;28;20283;-87
2022/05/06 00:39:10;;;;;;;3.05;2.85;;;16.00;99.90;;;;;;5072145;28;20255;-87
2022/05/06 00:41:39;;;;;;;3.25;2.95;;;16.00;99.90;;;;;;5072316;28;20209;-87
2022/05/06 00:44:08;;;;;;;3.38;3.17;;;16.00;99.90;;;;;;5072174;28;20229;-87
2022/05/06 00:46:39;;;;;;;3.33;2.88;;;15.90;99.90;;;;;;5072121;28;20209;-86
2022/05/06 00:49:10;;;;;;;2.95;2.75;;;15.90;99.90;;;;;;5072215;28;20225;-87
2022/05/06 00:51:39;;;;;;;2.80;2.60;;;15.90;99.90;;;;;;5071945;28;20226;-86
2022/05/06 00:54:08;;;;;;;4.10;3.65;;;15.80;99.90;;;;;;5072285;28;20293;-87
2022/05/06 00:56:36;;;;;;;3.58;3.28;;;15.90;99.90;;;;;;5071952;28;20201;-87
2022/05/06 00:59:05;;;;;;;3.03;2.83;;;15.80;99.90;;;;;;5071724;28;20197;-86
2022/05/06 01:01:33;;;;;;;3.20;2.90;;;15.80;99.90;;;;;;5071892;28;20221;-86
2022/05/06 01:04:04;;;;;;;3.13;2.83;;;15.80;99.90;;;;;;5072394;28;20216;-86
2022/05/06 01:06:33;;;;;;;3.78;3.47;;;15.80;99.90;;;;;;5071818;28;20243;-87
2022/05/06 01:09:02;;;;;;;2.78;2.63;;;15.80;99.90;;;;;;5072239;28;20221;-86
2022/05/06 01:11:30;;;;;;;2.80;2.60;;;15.80;99.90;;;;;;5075124;28;20240;-86
2022/05/06 01:13:58;;;;;;;3.22;2.90;;;15.80;99.90;;;;;;5075706;28;20288;-86
2022/05/06 01:16:33;;;;;;;3.80;3.47;;;15.80;99.90;;;;;;5075981;28;20209;-86
2022/05/06 01:19:05;;;;;;;3.70;3.40;;;15.70;99.90;;;;;;5075217;28;20227;-87
2022/05/06 01:21:37;;;;;;;3.88;3.40;;;15.70;99.90;;;;;;5075435;28;20208;-86
2022/05/06 01:24:08;;;;;;;3.75;3.45;;;15.70;99.90;;;;;;5075512;28;20290;-86
2022/05/06 01:26:54;;;;;;;3.42;3.13;;;15.70;99.90;;;;;;5075186;28;20293;-87
2022/05/06 01:29:23;;;;;;;3.28;3.08;;;15.60;99.90;;;;;;5074890;28;20311;-87
2022/05/06 01:31:53;;;;;;;3.75;3.45;;;15.60;99.90;;;;;;5075118;28;20287;-86
2022/05/06 01:34:26;;;;;;;3.50;3.30;;;15.60;99.90;;;;;;5075134;28;20247;-86
2022/05/06 01:36:57;;;;;;;4.63;3.92;;;15.60;99.90;;;;;;5075026;28;20236;-87
2022/05/06 01:39:30;;;;;;;3.53;3.22;;;15.60;99.90;;;;;;5075139;28;20202;-87
2022/05/06 01:42:04;;;;;;;3.83;3.38;;;15.50;99.90;;;;;;5075280;28;20251;-87
2022/05/06 01:44:38;;;;;;;3.83;3.50;;;15.50;99.90;;;;;;5075257;28;20292;-87
2022/05/06 01:47:14;;;;;;;4.07;3.67;;;15.50;99.90;;;;;;5075162;28;20311;-87
2022/05/06 01:49:44;;;;;;;5.88;3.75;;;15.50;99.90;;;;;;5074917;28;20284;-87
2022/05/06 01:52:17;;;;;;;3.78;3.45;;;15.50;99.90;;;;;;5074651;28;20248;-87
2022/05/06 01:54:47;;;;;;;4.40;4.03;;;15.50;99.90;;;;;;5074956;28;20241;-86
2022/05/06 01:57:16;;;;;;;3.40;3.10;;;15.40;99.90;;;;;;5074736;28;20224;-87
2022/05/06 01:59:44;;;;;;;3.95;3.65;;;15.40;99.90;;;;;;5074472;28;20216;-87
2022/05/06 02:02:12;;;;;;;3.97;3.60;;;15.40;99.90;;;;;;5074409;28;20319;-86
2022/05/06 02:07:26;;;;;;;4.47;4.07;;;15.40;99.90;;;;;;5074751;28;20295;-86
2022/05/06 02:09:57;;;;;;;4.35;3.95;;;15.40;99.90;;;;;;5074403;28;20307;-86
2022/05/06 02:12:26;;;;;;;3.75;3.42;;;15.30;99.90;;;;;;5074116;28;20224;-86
2022/05/06 02:14:55;;;;;;;3.75;3.33;;;15.30;99.90;;;;;;5074186;28;20205;-87
2022/05/06 02:17:23;;;;;;;3.95;3.65;;;15.30;99.90;;;;;;5074400;28;20201;-87
2022/05/06 02:19:52;;;;;;;3.92;3.63;;;15.20;99.90;;;;;;5074446;28;20205;-87
2022/05/06 02:22:20;;;;;;;3.63;3.33;;;15.20;99.90;;;;;;5074158;28;20227;-87
2022/05/06 02:24:49;;;;;;;3.92;3.53;;;15.20;99.90;;;;;;5074250;28;20201;-87
2022/05/06 02:27:18;;;;;;;3.83;3.20;;;15.20;99.90;;;;;;5074269;28;20235;-86
2022/05/06 02:35:14;;;;;;;3.13;2.88;;;15.10;99.90;;;;;;5074032;28;20209;-86
2022/05/06 02:37:43;;;;;;;3.40;3.10;;;15.00;99.90;;;;;;5073911;28;20208;-86
2022/05/06 02:40:12;;;;;;;2.80;2.60;;;15.00;99.90;;;;;;5073667;28;20201;-86
2022/05/06 02:42:43;;;;;;;2.90;2.70;;;14.90;99.90;;;;;;5073754;28;20263;-86
2022/05/06 02:45:12;;;;;;;3.17;2.92;;;14.90;99.90;;;;;;5073740;28;20296;-87
2022/05/06 02:47:40;;;;;;;3.25;2.95;;;14.80;99.90;;;;;;5073685;28;20252;-86
2022/05/06 02:50:09;;;;;;;3.00;2.80;;;14.80;99.90;;;;;;5073472;28;20229;-86
2022/05/06 02:52:37;;;;;;;2.90;2.65;;;14.80;99.90;;;;;;5073612;28;20225;-86
2022/05/06 02:55:07;;;;;;;5.15;3.88;;;14.70;99.90;;;;;;5073378;28;20298;-86
2022/05/06 02:57:35;;;;;;;3.10;2.80;;;14.70;99.90;;;;;;5073551;28;20288;-87
2022/05/06 03:00:06;;;;;;;3.30;3.00;;;14.60;99.90;;;;;;5073290;28;20225;-86
2022/05/06 03:02:35;;;;;;;3.25;2.95;;;14.60;99.90;;;;;;5073689;28;20304;-87
2022/05/06 03:05:03;;;;;;;3.85;3.08;;;14.60;99.90;;;;;;5073243;28;20291;-87
2022/05/06 03:07:32;;;;;;;3.95;3.65;;;14.60;99.90;;;;;;5073489;28;20227;-87
2022/05/06 03:10:00;;;;;;;5.45;4.57;;;14.60;99.90;;;;;;5073030;28;20303;-87
2022/05/06 03:12:29;;;;;;;4.00;3.60;;;14.60;99.90;;;;;;5073256;28;20308;-86
2022/05/06 03:14:58;;;;;;;3.88;3.55;;;14.60;99.90;;;;;;5073237;28;20231;-86
2022/05/06 03:17:28;;;;;;;6.00;4.45;;;14.60;99.90;;;;;;5072926;28;20229;-87
2022/05/06 03:19:56;;;;;;;5.25;4.60;;;14.60;99.90;;;;;;5073111;28;20259;-87
2022/05/06 03:22:26;;;;;;;5.30;4.50;;;14.60;99.90;;;;;;5072632;28;20232;-86
2022/05/06 03:24:54;;;;;;;5.13;4.63;;;14.60;99.90;;;;;;5073213;28;20208;-87
2022/05/06 03:30:09;;;;;;;5.55;5.05;;;14.70;99.90;;;;;;5072606;28;20224;-86
2022/05/06 03:32:39;;;;;;;5.32;4.90;;;14.70;99.90;;;;;;5072586;28;20268;-86
2022/05/06 03:35:08;;;;;;;6.97;5.47;;;14.70;99.90;;;;;;5072593;28;20240;-86
2022/05/06 03:37:38;;;;;;;6.90;5.35;;;14.70;99.90;;;;;;5072662;28;20296;-87
2022/05/06 03:40:07;;;;;;;4.78;4.38;;;14.70;99.90;;;;;;5072507;28;20288;-87
2022/05/06 03:42:35;;;;;;;6.20;5.32;;;14.70;99.90;;;;;;5072800;28;20260;-86
2022/05/06 03:45:06;;;;;;;5.13;4.72;;;14.80;99.90;;;;;;5072982;28;20229;-86
2022/05/06 03:47:35;;;;;;;4.68;4.28;;;14.70;99.90;;;;;;5072758;28;20205;-87
2022/05/06 03:52:52;;;;;;;5.47;4.97;;;14.70;99.90;;;;;;5072702;28;20312;-86
2022/05/06 03:55:21;;;;;;;4.57;4.20;;;14.70;99.90;;;;;;5072766;28;20284;-86
2022/05/06 03:57:49;;;;;;;4.95;4.43;;;14.70;99.90;;;;;;5072594;28;20240;-86
2022/05/06 04:00:19;;;;;;;6.78;4.85;;;14.70;99.90;;;;;;5071973;28;20193;-87
2022/05/06 04:02:48;;;;;;;5.00;4.60;;;14.70;99.90;;;;;;5072015;28;20237;-86
2022/05/06 04:05:17;;;;;;;7.75;5.05;;;14.70;99.90;;;;;;5072354;28;20205;-86
2022/05/06 04:07:46;;;;;;;5.57;4.90;;;14.70;99.90;;;;;;5072914;28;20201;-87
2022/05/06 04:10:14;;;;;;;4.75;4.25;;;14.70;99.90;;;;;;5072016;28;20221;-87
2022/05/06 04:12:42;;;;;;;4.68;4.38;;;14.70;99.90;;;;;;5072458;28;20259;-86
2022/05/06 04:15:11;;;;;;;3.85;3.60;;;14.70;99.90;;;;;;5072373;28;20304;-87
2022/05/06 04:17:39;;;;;;;5.32;4.88;;;14.70;99.90;;;;;;5072163;28;20200;-87
2022/05/06 04:25:42;;;;;;;5.18;4.63;;;14.70;99.90;;;;;;5072533;28;20288;-87
2022/05/06 04:28:10;;;;;;;4.60;4.28;;;14.80;99.90;;;;;;5072530;28;20205;-87
2022/05/06 04:30:38;;;;;;;5.63;4.95;;;14.80;99.90;;;;;;5071608;28;20249;-87
2022/05/06 04:33:07;;;;;;;4.18;3.88;;;14.90;99.90;;;;;;5072197;28;20228;-87
2022/05/06 04:35:36;;;;;;;4.88;4.47;;;14.90;99.90;;;;;;5072277;28;20288;-87
2022/05/06 04:38:06;;;;;;;5.40;4.90;;;14.90;99.90;;;;;;5072276;28;20228;-87
2022/05/06 04:40:34;;;;;;;5.10;4.68;;;15.00;99.90;;;;;;5071969;28;20247;-89
2022/05/06 04:43:03;;;;;;;5.13;4.72;;;15.00;99.90;;;;;;5072026;28;20221;-89
2022/05/06 04:45:32;;;;;;;5.13;4.72;;;15.00;99.90;;;;;;5075328;28;20212;-89
2022/05/06 04:48:00;;;;;;;8.73;6.10;;;15.10;99.90;;;;;;5075968;28;20264;-89
2022/05/06 04:50:28;;;;;;;5.95;5.45;;;15.10;99.90;;;;;;5075718;28;20251;-90
2022/05/06 04:52:56;;;;;;;5.03;4.57;;;15.10;99.90;;;;;;5076078;28;20253;-89
2022/05/06 04:55:26;;;;;;;3.72;3.47;;;15.10;99.90;;;;;;5076067;28;20316;-89
2022/05/06 04:57:55;;;;;;;10.25;4.55;;;15.10;99.90;;;;;;5076160;28;20225;-90
2022/05/06 05:00:23;;;;;;;5.20;4.70;;;15.10;99.90;;;;;;5075601;28;20297;-90
2022/05/06 05:02:51;;;;;;;4.47;4.07;;;15.00;99.90;;;;;;5075739;28;20236;-89
2022/05/06 05:05:20;;;;;;;24.27;4.53;;;15.00;99.90;;;;;;5075564;28;20248;-89
2022/05/06 05:07:48;;;;;;;4.97;4.32;;;15.00;99.90;;;;;;5075642;28;20209;-89
2022/05/06 05:10:16;;;;;;;3.47;3.15;;;15.00;99.90;;;;;;5075186;28;20229;-89
2022/05/06 05:12:46;;;;;;;4.47;4.07;;;15.00;99.90;;;;;;5075488;28;20251;-89
2022/05/06 05:15:15;;;;;;;4.63;4.22;;;15.00;99.90;;;;;;5075941;28;20201;-90
2022/05/06 05:17:43;;;;;;;4.13;3.80;;;15.00;99.90;;;;;;5075512;28;20223;-89
2022/05/06 05:20:12;;;;;;;4.25;3.85;;;15.10;99.90;;;;;;5075188;28;20254;-87
2022/05/06 05:22:41;;;;;;;3.53;3.22;;;15.10;99.90;;;;;;5075238;28;20260;-86
2022/05/06 05:25:10;;;;;;;3.60;3.30;;;15.10;99.90;;;;;;5075891;28;20209;-86
2022/05/06 05:27:39;;;;;;;3.83;3.53;;;15.00;99.90;;;;;;5075360;28;20205;-87
2022/05/06 05:30:11;;;;;;;5.53;3.60;;;15.00;99.90;;;;;;5075127;28;20296;-90
2022/05/06 05:32:40;;;;;;;4.93;3.85;;;15.00;99.90;;;;;;5075009;28;20293;-89
2022/05/06 05:35:09;;;;;;;4.05;3.72;;;15.10;99.90;;;;;;5075113;28;20261;-89
2022/05/06 05:37:38;;;;;;;3.90;3.60;;;15.10;99.90;;;;;;5075155;28;20264;-87
2022/05/06 05:40:07;;;;;;;4.82;4.25;;;15.10;99.90;;;;;;5075397;28;20197;-87
2022/05/06 05:42:35;;;;;;;7.60;4.55;;;15.20;99.90;;;;;;5074786;28;20259;-87
2022/05/06 05:50:43;;;;;;;4.38;4.00;;;15.30;99.90;;;;;;5074788;28;20229;-89
2022/05/06 05:53:12;;;;;;;3.53;3.20;;;15.30;99.90;;;;;;5075058;28;20245;-89
2022/05/06 05:55:44;;;;;;;4.45;3.95;;;15.30;99.90;;;;;;5074687;28;20205;-89
2022/05/06 05:58:13;;;;;;;3.97;3.67;;;15.30;99.90;;;;;;5074726;28;20205;-89
2022/05/06 06:00:44;;;;;;;4.20;3.90;;;15.30;99.90;;;;;;5074716;28;20204;-90
2022/05/06 06:03:14;;;;;;;6.43;4.53;;;15.30;99.90;;;;;;5074723;28;20259;-89
2022/05/06 06:05:44;;;;;;;9.18;3.92;;;15.30;99.90;;;;;;5074781;28;20235;-89
2022/05/06 06:08:13;;;;;;;3.83;3.50;;;15.30;99.90;;;;;;5074488;28;20201;-89
2022/05/06 06:10:41;;;;;;;3.75;3.15;;;15.20;99.90;;;;;;5074467;28;20332;-89
2022/05/06 06:13:09;;;;;;;4.30;3.90;;;15.20;99.90;;;;;;5074774;28;20296;-89
2022/05/06 06:15:38;;;;;;;3.45;3.15;;;15.30;99.90;;;;;;5074539;28;20234;-89
2022/05/06 06:18:07;;;;;;;4.43;4.03;;;15.30;99.90;;;;;;5074679;28;20292;-89
2022/05/06 06:20:38;;;;;;;4.53;4.18;;;15.40;99.90;;;;;;5074569;28;20201;-86
2022/05/06 06:23:08;;;;;;;5.10;4.13;;;15.50;99.90;;;;;;5074291;28;20267;-86
2022/05/06 06:25:40;;;;;;;4.25;3.95;;;15.50;99.90;;;;;;5074259;28;20270;-87
2022/05/06 06:28:10;;;;;;;4.53;4.13;;;15.50;99.90;;;;;;5074112;28;20261;-86
2022/05/06 06:30:40;;;;;;;4.88;4.10;;;15.60;99.90;;;;;;5073924;28;20201;-87
2022/05/06 06:33:09;;;;;;;5.05;4.03;;;15.60;99.90;;;;;;5074182;28;20248;-86
2022/05/06 06:35:39;;;;;;;6.60;4.55;;;15.70;99.90;;;;;;5074406;28;20292;-86
2022/05/06 06:38:07;;;;;;;9.75;4.80;;;15.70;99.90;;;;;;5073942;28;20223;-87
2022/05/06 06:40:36;;;;;;;5.55;5.03;;;15.80;99.90;;;;;;5073984;28;20254;-87
2022/05/06 06:43:07;;;;;;;5.45;4.47;;;15.90;99.90;;;;;;5073796;28;20229;-87
2022/05/06 06:45:35;;;;;;;5.55;4.85;;;15.90;99.90;;;;;;5073913;28;20201;-87
2022/05/06 06:48:05;;;;;;;5.65;5.05;;;15.90;99.90;;;;;;5073883;28;20209;-87
2022/05/06 06:50:34;;;;;;;6.47;4.40;;;16.00;99.90;;;;;;5073665;28;20198;-87
2022/05/06 06:53:04;;;;;;;5.45;5.00;;;16.00;99.90;;;;;;5073647;28;20228;-86
2022/05/06 06:55:32;;;;;;;5.60;5.10;;;16.10;99.90;;;;;;5073738;28;20266;-86
2022/05/06 06:58:01;;;;;;;5.32;4.82;;;16.20;99.90;;;;;;5073426;28;20273;-87
2022/05/06 07:00:30;;;;;;;16.20;4.78;;;16.20;99.90;;;;;;5073189;28;20205;-87
2022/05/06 07:02:58;;;;;;;5.57;4.82;;;16.30;99.90;;;;;;5073290;28;20229;-87
2022/05/06 07:05:29;;;;;;;4.82;4.35;;;16.50;99.90;;;;;;5073301;28;20209;-86
2022/05/06 07:13:56;;;;;;;5.20;4.80;;;16.80;99.90;;;;;;5073654;28;20300;-87
2022/05/06 07:16:29;;;;;;;6.22;5.47;;;16.90;99.90;;;;;;5073503;28;20251;-87
2022/05/06 07:18:59;;;;;;;5.53;5.03;;;16.90;99.90;;;;;;5073020;28;20215;-87
2022/05/06 07:21:27;;;;;;;6.03;4.55;;;17.00;99.90;;;;;;5073433;28;20279;-86
2022/05/06 07:23:56;;;;;;;5.18;4.78;;;17.10;99.90;;;;;;5073350;28;20205;-86
2022/05/06 07:26:26;;;;;;;8.75;6.53;;;17.20;99.90;;;;;;5073338;28;20205;-87
2022/05/06 07:28:55;;;;;;;12.93;10.82;;;17.30;99.90;;;;;;5072917;28;20217;-86
2022/05/06 07:31:23;;;;;;;9.75;7.60;;;17.50;99.90;;;;;;5072601;28;20229;-86
2022/05/06 07:34:03;;;;;;;8.23;7.43;;;17.60;99.90;;;;;;5073318;28;20216;-86
2022/05/06 07:36:32;;;;;;;8.45;7.22;;;17.60;99.90;;;;;;5076364;28;20259;-89
2022/05/06 07:39:01;;;;;;;8.20;7.35;;;17.70;99.90;;;;;;5074697;28;20221;-89
2022/05/06 07:41:31;;;;;;;7.18;6.57;;;17.80;99.90;;;;;;5072715;28;20236;-86
2022/05/06 07:43:59;;;;;;;5.75;5.30;;;17.90;99.90;;;;;;5072638;28;20235;-86
2022/05/06 07:46:28;;;;;;;5.40;4.93;;;17.90;99.90;;;;;;5072753;28;20201;-86
2022/05/06 07:48:56;;;;;;;6.03;5.07;;;18.00;99.90;;;;;;5072820;28;20209;-86
2022/05/06 07:51:25;;;;;;;4.32;4.03;;;18.10;99.90;;;;;;5072336;28;20233;-86
2022/05/06 07:53:53;;;;;;;5.50;4.55;;;18.30;99.90;;;;;;5073020;28;20228;-86
2022/05/06 07:56:24;;;;;;;5.10;4.70;;;18.50;99.90;;;;;;5072588;28;20282;-86
2022/05/06 07:58:58;;;;;;;4.20;3.88;;;18.60;99.90;;;;;;5072675;28;20205;-86
2022/05/06 08:04:35;;;;;;;6.05;5.45;;;18.90;99.90;;;;;;5072676;28;20270;-86
2022/05/06 08:07:06;;;;;;;6.22;5.72;;;19.00;99.90;;;;;;5072367;28;20197;-86
2022/05/06 08:09:39;;;;;;;6.85;6.18;;;19.20;99.90;;;;;;5072267;28;20197;-86
2022/05/06 08:12:09;;;;;;;6.57;5.63;;;19.30;99.90;;;;;;5072262;28;20220;-86
2022/05/06 08:14:42;;;;;;;5.47;5.07;;;19.40;99.90;;;;;;5072252;28;20232;-86
2022/05/06 08:17:14;;;;;;;4.82;4.43;;;19.50;99.90;;;;;;5072452;28;20205;-86
2022/05/06 08:20:01;;;;;;;5.18;4.38;;;19.60;99.90;;;;;;5076571;28;20266;-86
2022/05/06 08:22:40;;;;;;;4.68;4.35;;;19.60;99.90;;;;;;5076522;28;20229;-86
2022/05/06 08:25:10;;;;;;;6.90;4.45;;;19.80;99.90;;;;;;5076668;28;20291;-86
2022/05/06 08:28:03;;;;;;;6.28;4.40;;;19.70;99.90;;;;;;5076586;28;20292;-86
2022/05/06 08:30:35;;;;;;;4.53;4.20;;;19.70;99.90;;;;;;5076362;28;20241;-86
2022/05/06 08:33:04;;;;;;;5.78;5.25;;;19.70;99.90;;;;;;5076237;28;20220;-86
2022/05/06 08:35:37;;;;;;;5.05;4.60;;;19.70;99.90;;;;;;5075953;28;20229;-87
2022/05/06 08:38:15;;;;;;;4.68;4.35;;;19.70;99.90;;;;;;5076400;28;20204;-86
2022/05/06 08:40:59;;;;;;;4.22;3.92;;;19.90;99.90;;;;;;5076174;28;20215;-86
2022/05/06 08:43:30;;;;;;;4.68;4.28;;;20.10;99.90;;;;;;5075714;28;20225;-86
2022/05/06 08:51:47;;;;;;;6.25;4.50;;;21.20;99.90;;;;;;5075645;28;20208;-86
2022/05/06 08:54:20;;;;;;;5.07;4.45;;;21.40;99.90;;;;;;5075798;28;20209;-86
2022/05/06 08:57:00;;;;;;;4.68;4.30;;;21.50;99.90;;;;;;5076197;28;20231;-86
2022/05/06 08:59:31;;;;;;;4.15;3.78;;;21.80;99.90;;;;;;5076255;28;20240;-86
2022/05/06 09:02:26;;;;;;;4.75;4.25;;;21.90;99.90;;;;;;5075322;28;20290;-86
2022/05/06 09:04:54;;;;;;;5.70;4.88;;;22.10;99.90;;;;;;5075476;28;20232;-86
2022/05/06 09:07:25;;;;;;;4.90;4.50;;;22.00;99.90;;;;;;5076167;28;20200;-86
2022/05/06 09:10:30;;;;;;;8.25;5.63;;;21.90;99.90;;;;;;5075388;28;20201;-86
2022/05/06 09:13:01;;;;;;;7.18;6.50;;;21.70;99.90;;;;;;5075959;28;20220;-87
2022/05/06 09:18:23;;;;;;;6.45;5.05;;;21.20;99.90;;;;;;5075386;28;20211;-86
2022/05/06 09:21:23;;;;;;;5.47;4.97;;;20.80;99.90;;;;;;5075324;28;20209;-86
2022/05/06 09:24:10;;;;;;;;;;;;;;;;;;;;;
2022/05/06 09:26:39;;;;;;;5.45;4.95;;;20.40;99.90;;;;;;5075551;28;20205;-86
2022/05/06 09:29:31;;;;;;;6.07;5.32;;;20.40;99.90;;;;;;5075311;28;20209;-86
2022/05/06 09:32:16;;;;;;;5.70;4.82;;;20.40;99.90;;;;;;5074931;28;20225;-86
2022/05/06 09:34:47;;;;;;;5.20;4.80;;;20.40;99.90;;;;;;5075593;28;20213;-86
2022/05/06 09:37:34;;;;;;;6.20;5.32;;;20.40;99.90;;;;;;5075495;28;20232;-86
2022/05/06 09:40:08;;;;;;;6.10;5.47;;;20.40;99.90;;;;;;5075303;28;20288;-86
2022/05/06 09:42:38;;;;;;;5.75;5.35;;;20.60;99.90;;;;;;5074918;28;20229;-86
2022/05/06 09:45:08;;;;;;;10.35;5.38;;;20.70;99.90;;;;;;5074976;28;20236;-86
2022/05/06 09:47:37;;;;;;;5.88;5.35;;;20.90;99.90;;;;;;5075152;28;20205;-86
2022/05/06 09:50:31;;;;;;;15.18;4.70;;;21.00;99.90;;;;;;5074687;28;20212;-86
2022/05/06 09:53:01;;;;;;;5.18;4.68;;;21.10;99.90;;;;;;5074779;28;20236;-86
2022/05/06 09:55:31;;;;;;;10.15;5.22;;;21.40;99.90;;;;;;5074926;28;20296;-86
2022/05/06 09:58:06;;;;;;;8.38;4.90;;;21.60;99.90;;;;;;5074818;28;20201;-86
2022/05/06 10:00:38;;;;;;;6.28;5.63;;;21.80;99.90;;;;;;5074939;28;20200;-86
2022/05/06 10:03:07;;;;;;;8.00;5.63;;;21.90;99.90;;;;;;5074209;28;20225;-86
2022/05/06 10:05:38;;;;;;;6.38;5.60;;;22.00;99.90;;;;;;5074769;28;20223;-86
2022/05/06 10:08:12;;;;;;;4.88;4.43;;;22.00;99.90;;;;;;5074544;28;20235;-86
2022/05/06 10:10:47;;;;;;;5.15;4.60;;;22.20;99.90;;;;;;5074192;28;20231;-85
2022/05/06 10:13:22;;;;;;;6.13;5.63;;;22.20;99.90;;;;;;5074272;28;20248;-86
2022/05/06 10:15:53;;;;;;;4.88;4.47;;;22.00;99.90;;;;;;5074720;28;20204;-86
2022/05/06 10:18:34;;;;;;;11.40;4.70;;;22.10;99.90;;;;;;5074541;28;20228;-86
2022/05/06 10:21:07;;;;;;;4.95;4.43;;;22.10;99.90;;;;;;5073738;28;20235;-86
2022/05/06 10:23:50;;;;;;;4.47;4.07;;;22.40;99.90;;;;;;5074393;28;20221;-86
2022/05/06 10:26:45;;;;;;;5.63;5.13;;;22.50;99.90;;;;;;5074193;28;20225;-86
2022/05/06 10:32:56;;;;;;;5.43;4.93;;;22.70;99.90;;;;;;5073946;28;20246;-86
2022/05/06 10:35:44;;;;;;;4.65;4.25;;;22.70;99.90;;;;;;5074255;28;20208;-86
2022/05/06 10:38:31;;;;;;;5.30;4.75;;;22.90;99.90;;;;;;5073872;28;20274;-86
2022/05/06 10:41:05;;;;;;;5.70;5.15;;;23.00;99.90;;;;;;5073483;28;20209;-87
2022/05/06 10:43:54;;;;;;;7.28;5.18;;;22.90;99.90;;;;;;5073255;28;20308;-86
2022/05/06 10:46:33;;;;;;;5.78;5.28;;;22.90;99.90;;;;;;5074002;28;20304;-86
2022/05/06 10:49:42;;;;;;;5.20;4.72;;;22.70;99.90;;;;;;5073495;28;20231;-86
2022/05/06 10:52:54;;;;;;;5.28;4.78;;;22.50;99.90;;;;;;5070858;28;20259;-86
2022/05/06 10:55:27;;;;;;;7.60;4.75;;;22.30;99.90;;;;;;5073759;28;20296;-86
2022/05/06 10:58:04;;;;;;;5.72;5.13;;;22.30;99.90;;;;;;5073180;28;20201;-86
2022/05/06 11:00:37;;;;;;;5.40;4.95;;;22.30;99.90;;;;;;5074069;28;20212;-87
2022/05/06 11:03:26;;;;;;;6.10;5.60;;;22.30;99.90;;;;;;5073150;28;20229;-86
2022/05/06 11:06:08;;;;;;;5.10;4.65;;;22.20;99.90;;;;;;5073449;28;20208;-86
2022/05/06 11:08:38;;;;;;;5.97;5.50;;;22.20;99.90;;;;;;5073370;28;20235;-86
2022/05/06 11:11:18;;;;;;;5.20;4.70;;;22.00;99.90;;;;;;5073336;28;20208;-86
2022/05/06 11:13:47;;;;;;;8.70;4.95;;;21.90;99.90;;;;;;5073324;28;20224;-86
2022/05/06 11:16:16;;;;;;;4.43;4.13;;;21.80;99.90;;;;;;5073025;28;20205;-86
2022/05/06 11:18:45;;;;;;;4.57;4.28;;;21.80;99.90;;;;;;5072750;28;20252;-86
2022/05/06 11:21:24;;;;;;;5.38;4.80;;;21.80;99.90;;;;;;5072771;28;20208;-86
2022/05/06 11:23:52;;;;;;;4.90;4.40;;;21.90;99.90;;;;;;5073109;28;20208;-86
2022/05/06 11:26:26;;;;;;;5.68;5.00;;;22.10;99.90;;;;;;5073701;28;20197;-86
2022/05/06 11:29:02;;;;;;;5.78;5.28;;;21.90;99.90;;;;;;5073232;28;20213;-86
2022/05/06 11:31:30;;;;;;;4.43;4.13;;;21.80;99.90;;;;;;5072393;28;20224;-86
2022/05/06 11:34:03;;;;;;;9.70;5.28;;;21.70;99.90;;;;;;5072867;28;20233;-86
2022/05/06 11:36:32;;;;;;;5.53;5.10;;;21.60;99.90;;;;;;5072885;28;20197;-86
2022/05/06 11:39:11;;;;;;;7.25;6.40;;;21.60;99.90;;;;;;5073060;28;20201;-86
2022/05/06 11:41:40;;;;;;;5.10;4.57;;;21.50;99.90;;;;;;5072619;28;20300;-86
2022/05/06 11:44:10;;;;;;;3.97;3.67;;;21.40;99.90;;;;;;5073090;28;20197;-86
2022/05/06 11:49:39;;;;;;;6.13;5.47;;;21.40;99.90;;;;;;5072832;28;20205;-86
2022/05/06 11:52:08;;;;;;;9.43;4.70;;;21.40;99.90;;;;;;5072364;28;20221;-86
2022/05/06 11:54:36;;;;;;;7.05;6.00;;;21.20;99.90;;;;;;5072298;28;20312;-86
2022/05/06 11:57:09;;;;;;;6.25;5.75;;;20.90;99.90;;;;;;5072865;28;20312;-86
2022/05/06 11:59:38;;;;;;;7.05;6.45;;;20.60;99.90;;;;;;5072912;28;20265;-86
2022/05/06 12:02:09;;;;;;;6.93;6.22;;;20.30;99.90;;;;;;5072323;28;20319;-86
2022/05/06 12:04:52;;;;;;;6.47;5.95;;;20.00;99.90;;;;;;5110442;27;20613;-87
2022/05/06 12:07:40;;;;;;;6.75;6.10;;;19.70;99.90;;;;;;5110781;28;20211;-87
2022/05/06 12:10:10;;;;;;;6.45;5.85;;;19.50;99.90;;;;;;5110409;28;20242;-87
2022/05/06 12:12:55;;;;;;;8.00;6.55;;;19.30;99.90;;;;;;5110361;28;20215;-87
2022/05/06 12:15:29;;;;;;;5.88;5.43;;;19.30;99.90;;;;;;5110550;28;20275;-87
2022/05/06 12:18:06;;;;;;;7.00;6.03;;;19.20;99.90;;;;;;5110773;28;20207;-87
2022/05/06 12:20:37;;;;;;;5.85;5.45;;;19.30;99.90;;;;;;5109868;28;20263;-87
2022/05/06 12:23:06;;;;;;;6.78;6.03;;;19.20;99.90;;;;;;5110267;28;20306;-87
2022/05/06 12:25:38;;;;;;;10.27;5.93;;;19.20;99.90;;;;;;5110030;28;20219;-87
2022/05/06 12:28:09;;;;;;;6.82;6.05;;;19.20;99.90;;;;;;5110196;28;20231;-87
2022/05/06 12:30:38;;;;;;;7.00;6.40;;;19.20;99.90;;;;;;5109941;28;20208;-87
2022/05/06 12:33:08;;;;;;;6.85;6.28;;;19.20;99.90;;;;;;5109822;28;20212;-88
2022/05/06 12:35:56;;;;;;;6.90;6.30;;;19.30;99.90;;;;;;5110200;28;20260;-87
2022/05/06 12:38:26;;;;;;;9.77;6.63;;;19.50;99.90;;;;;;5109951;28;20227;-87
2022/05/06 12:40:55;;;;;;;6.57;6.07;;;19.60;99.90;;;;;;5109831;28;20200;-87
2022/05/06 12:43:28;;;;;;;8.18;7.43;;;19.60;99.90;;;;;;5109914;28;20327;-87
2022/05/06 12:45:59;;;;;;;8.85;7.47;;;19.60;99.90;;;;;;5109791;28;20290;-87
2022/05/06 12:51:14;;;;;;;7.53;6.85;;;19.60;99.90;;;;;;5109605;28;20243;-87
2022/05/06 12:53:42;;;;;;;7.95;7.22;;;19.60;99.90;;;;;;5109397;28;20258;-87
2022/05/06 12:56:18;;;;;;;8.75;7.95;;;19.60;99.90;;;;;;5109413;28;20212;-87
2022/05/06 12:58:46;;;;;;;8.82;7.97;;;19.60;99.90;;;;;;5110041;28;20311;-87
2022/05/06 13:01:15;;;;;;;7.75;6.95;;;19.50;99.90;;;;;;5109320;28;20204;-87
2022/05/06 13:03:43;;;;;;;8.20;7.53;;;19.50;99.90;;;;;;5108940;28;20247;-87
2022/05/06 13:06:13;;;;;;;8.48;7.68;;;19.40;99.90;;;;;;5109442;28;20200;-87
2022/05/06 13:08:41;;;;;;;8.43;7.72;;;19.40;99.90;;;;;;5109135;28;20223;-87
2022/05/06 13:11:10;;;;;;;8.77;8.02;;;19.30;99.90;;;;;;5109153;28;20257;-87
2022/05/06 13:13:38;;;;;;;10.07;8.30;;;19.10;99.90;;;;;;5109158;28;20220;-87
2022/05/06 13:16:06;;;;;;;7.88;7.20;;;19.10;99.90;;;;;;5096443;28;20220;-87
2022/05/06 13:18:35;;;;;;;9.70;8.70;;;19.00;99.90;;;;;;5095570;28;20212;-87
2022/05/06 13:21:03;;;;;;;9.38;8.48;;;19.00;99.90;;;;;;5095207;28;20203;-87
2022/05/06 13:23:33;;;;;;;8.10;7.40;;;19.00;99.90;;;;;;5095522;28;20248;-87
2022/05/06 13:26:03;;;;;;;9.13;8.23;;;19.00;99.90;;;;;;5095719;28;20196;-87
2022/05/06 13:28:31;;;;;;;10.32;8.52;;;18.80;99.90;;;;;;5095325;28;20287;-87
2022/05/06 13:31:00;;;;;;;10.50;9.00;;;18.70;99.90;;;;;;5095081;28;20239;-87
2022/05/06 13:33:29;;;;;;;9.05;8.18;;;18.60;99.90;;;;;;5094934;28;20903;-87
2022/05/06 13:36:00;;;;;;;8.73;8.02;;;18.50;99.90;;;;;;5095126;28;20204;-87
2022/05/06 13:38:28;;;;;;;10.07;8.73;;;18.50;99.90;;;;;;5095523;28;20223;-86
2022/05/06 13:41:03;;;;;;;10.20;9.20;;;18.60;99.90;;;;;;5094894;28;20215;-87
2022/05/06 13:43:32;;;;;;;9.00;8.18;;;18.60;99.90;;;;;;5095373;28;20250;-87
2022/05/06 13:46:01;;;;;;;8.43;7.68;;;18.70;99.90;;;;;;5095076;28;20296;-87
2022/05/06 13:48:29;;;;;;;9.48;8.73;;;18.80;99.90;;;;;;5095005;28;20206;-87
2022/05/06 13:50:58;;;;;;;8.80;7.63;;;18.90;99.90;;;;;;5094962;28;20235;-87
2022/05/06 13:53:26;;;;;;;8.52;7.72;;;19.00;99.90;;;;;;5094850;28;20244;-87
2022/05/06 14:01:27;;;;;;;7.85;7.10;;;19.30;99.90;;;;;;5094600;28;20259;-87
2022/05/06 14:03:56;;;;;;;8.18;7.38;;;19.30;99.90;;;;;;5094133;28;20250;-87
2022/05/06 14:06:24;;;;;;;8.48;7.78;;;19.40;99.90;;;;;;5094536;28;20290;-87
2022/05/06 14:08:53;;;;;;;8.07;7.15;;;19.40;99.90;;;;;;5094838;28;20236;-87